sensor_id;sensor_type;location;lat;lon;timestamp;P1;durP1;ratioP1;P2;durP2;ratioP2
14933;SDS011;7560;51.364;12.384;2023-02-02T00:01:47;4.97;;;2.20;;
14933;SDS011;7560;51.364;12.384;2023-02-02T00:06:53;7.47;;;1.88;;
14933;SDS011;7560;51.364;12.384;2023-02-02T00:11:59;7.32;;;2.42;;
14933;SDS011;7560;51.364;12.384;2023-02-02T00:17:01;8.45;;;2.53;;
14933;SDS011;7560;51.364;12.384;2023-02-02T00:22:04;6.38;;;2.25;;
14933;SDS011;7560;51.364;12.384;2023-02-02T00:27:05;6.63;;;2.20;;
14933;SDS011;7560;51.364;12.384;2023-02-02T00:32:09;6.03;;;1.65;;
14933;SDS011;7560;51.364;12.384;2023-02-02T00:37:10;10.40;;;2.00;;
14933;SDS011;7560;51.364;12.384;2023-02-02T00:42:12;5.72;;;2.00;;
14933;SDS011;7560;51.364;12.384;2023-02-02T00:47:14;5.32;;;1.83;;
14933;SDS011;7560;51.364;12.384;2023-02-02T00:52:16;5.43;;;1.90;;
14933;SDS011;7560;51.364;12.384;2023-02-02T00:57:18;8.88;;;2.00;;
14933;SDS011;7560;51.364;12.384;2023-02-02T01:02:20;6.82;;;1.67;;
14933;SDS011;7560;51.364;12.384;2023-02-02T01:07:22;7.68;;;1.83;;
14933;SDS011;7560;51.364;12.384;2023-02-02T01:12:23;10.65;;;2.20;;
14933;SDS011;7560;51.364;12.384;2023-02-02T01:17:25;4.93;;;1.35;;
14933;SDS011;7560;51.364;12.384;2023-02-02T01:22:27;6.57;;;2.08;;
14933;SDS011;7560;51.364;12.384;2023-02-02T01:27:29;8.45;;;2.28;;
14933;SDS011;7560;51.364;12.384;2023-02-02T01:32:30;7.60;;;1.70;;
14933;SDS011;7560;51.364;12.384;2023-02-02T01:37:33;8.63;;;1.90;;
14933;SDS011;7560;51.364;12.384;2023-02-02T01:42:34;6.75;;;1.67;;
14933;SDS011;7560;51.364;12.384;2023-02-02T01:47:38;8.23;;;1.83;;
14933;SDS011;7560;51.364;12.384;2023-02-02T01:52:53;6.97;;;1.80;;
14933;SDS011;7560;51.364;12.384;2023-02-02T01:58:01;9.38;;;1.80;;
14933;SDS011;7560;51.364;12.384;2023-02-02T02:03:25;7.10;;;1.85;;
14933;SDS011;7560;51.364;12.384;2023-02-02T02:08:30;8.98;;;1.92;;
14933;SDS011;7560;51.364;12.384;2023-02-02T02:13:34;3.70;;;1.70;;
14933;SDS011;7560;51.364;12.384;2023-02-02T02:35:38;4.50;;;1.58;;
14933;SDS011;7560;51.364;12.384;2023-02-02T02:41:09;4.55;;;1.67;;
14933;SDS011;7560;51.364;12.384;2023-02-02T02:46:20;9.68;;;1.90;;
14933;SDS011;7560;51.364;12.384;2023-02-02T02:51:40;9.40;;;1.63;;
14933;SDS011;7560;51.364;12.384;2023-02-02T02:56:51;9.95;;;1.70;;
14933;SDS011;7560;51.364;12.384;2023-02-02T03:07:01;10.35;;;1.75;;
14933;SDS011;7560;51.364;12.384;2023-02-02T03:12:07;9.52;;;1.63;;
14933;SDS011;7560;51.364;12.384;2023-02-02T03:17:09;7.35;;;1.77;;
14933;SDS011;7560;51.364;12.384;2023-02-02T03:22:11;5.60;;;1.55;;
14933;SDS011;7560;51.364;12.384;2023-02-02T03:27:13;5.93;;;1.25;;
14933;SDS011;7560;51.364;12.384;2023-02-02T03:32:14;6.53;;;1.67;;
14933;SDS011;7560;51.364;12.384;2023-02-02T03:37:16;9.88;;;2.00;;
14933;SDS011;7560;51.364;12.384;2023-02-02T03:42:18;4.43;;;1.55;;
14933;SDS011;7560;51.364;12.384;2023-02-02T03:47:20;5.38;;;1.05;;
14933;SDS011;7560;51.364;12.384;2023-02-02T03:52:22;10.20;;;1.80;;
14933;SDS011;7560;51.364;12.384;2023-02-02T03:57:24;6.78;;;1.10;;
14933;SDS011;7560;51.364;12.384;2023-02-02T04:02:26;9.52;;;1.92;;
14933;SDS011;7560;51.364;12.384;2023-02-02T04:07:28;9.48;;;1.80;;
14933;SDS011;7560;51.364;12.384;2023-02-02T04:12:30;9.00;;;1.52;;
14933;SDS011;7560;51.364;12.384;2023-02-02T04:17:32;5.75;;;1.52;;
14933;SDS011;7560;51.364;12.384;2023-02-02T04:22:33;8.07;;;1.58;;
14933;SDS011;7560;51.364;12.384;2023-02-02T04:27:35;8.05;;;1.27;;
14933;SDS011;7560;51.364;12.384;2023-02-02T04:32:37;7.55;;;1.52;;
14933;SDS011;7560;51.364;12.384;2023-02-02T04:37:39;9.85;;;1.50;;
14933;SDS011;7560;51.364;12.384;2023-02-02T04:42:41;6.55;;;1.55;;
14933;SDS011;7560;51.364;12.384;2023-02-02T04:47:42;6.65;;;1.70;;
14933;SDS011;7560;51.364;12.384;2023-02-02T04:52:44;10.45;;;1.55;;
14933;SDS011;7560;51.364;12.384;2023-02-02T04:57:46;7.93;;;1.40;;
14933;SDS011;7560;51.364;12.384;2023-02-02T05:02:47;7.03;;;1.63;;
14933;SDS011;7560;51.364;12.384;2023-02-02T05:07:49;8.68;;;1.55;;
14933;SDS011;7560;51.364;12.384;2023-02-02T05:12:51;5.78;;;1.35;;
14933;SDS011;7560;51.364;12.384;2023-02-02T05:17:54;3.53;;;1.25;;
14933;SDS011;7560;51.364;12.384;2023-02-02T05:22:55;7.25;;;1.67;;
14933;SDS011;7560;51.364;12.384;2023-02-02T05:27:57;9.25;;;1.50;;
14933;SDS011;7560;51.364;12.384;2023-02-02T05:32:59;7.57;;;1.50;;
14933;SDS011;7560;51.364;12.384;2023-02-02T05:38:01;8.23;;;1.55;;
14933;SDS011;7560;51.364;12.384;2023-02-02T05:43:03;7.53;;;1.40;;
14933;SDS011;7560;51.364;12.384;2023-02-02T05:48:05;7.72;;;1.73;;
14933;SDS011;7560;51.364;12.384;2023-02-02T05:53:06;7.25;;;1.65;;
14933;SDS011;7560;51.364;12.384;2023-02-02T05:58:09;8.00;;;1.88;;
14933;SDS011;7560;51.364;12.384;2023-02-02T06:03:11;5.85;;;1.38;;
14933;SDS011;7560;51.364;12.384;2023-02-02T06:08:13;7.55;;;1.60;;
14933;SDS011;7560;51.364;12.384;2023-02-02T06:13:15;5.00;;;1.15;;
14933;SDS011;7560;51.364;12.384;2023-02-02T06:18:17;11.18;;;1.65;;
14933;SDS011;7560;51.364;12.384;2023-02-02T06:23:18;10.80;;;1.48;;
14933;SDS011;7560;51.364;12.384;2023-02-02T06:28:20;9.02;;;1.80;;
14933;SDS011;7560;51.364;12.384;2023-02-02T06:33:22;8.38;;;2.05;;
14933;SDS011;7560;51.364;12.384;2023-02-02T06:38:24;10.57;;;2.28;;
14933;SDS011;7560;51.364;12.384;2023-02-02T06:43:25;9.57;;;1.98;;
14933;SDS011;7560;51.364;12.384;2023-02-02T06:48:28;8.90;;;1.52;;
14933;SDS011;7560;51.364;12.384;2023-02-02T06:53:30;4.72;;;1.50;;
14933;SDS011;7560;51.364;12.384;2023-02-02T06:58:32;11.18;;;1.98;;
14933;SDS011;7560;51.364;12.384;2023-02-02T07:03:34;6.55;;;1.52;;
14933;SDS011;7560;51.364;12.384;2023-02-02T07:08:37;4.00;;;1.40;;
14933;SDS011;7560;51.364;12.384;2023-02-02T07:13:44;10.68;;;1.75;;
14933;SDS011;7560;51.364;12.384;2023-02-02T07:18:46;8.88;;;2.10;;
14933;SDS011;7560;51.364;12.384;2023-02-02T07:23:49;10.63;;;1.70;;
14933;SDS011;7560;51.364;12.384;2023-02-02T07:28:51;6.55;;;1.38;;
14933;SDS011;7560;51.364;12.384;2023-02-02T07:33:53;7.03;;;1.42;;
14933;SDS011;7560;51.364;12.384;2023-02-02T07:38:55;5.95;;;1.55;;
14933;SDS011;7560;51.364;12.384;2023-02-02T07:44:02;9.35;;;1.88;;
14933;SDS011;7560;51.364;12.384;2023-02-02T07:49:05;7.28;;;1.70;;
14933;SDS011;7560;51.364;12.384;2023-02-02T07:54:07;5.85;;;1.70;;
14933;SDS011;7560;51.364;12.384;2023-02-02T07:59:09;13.00;;;1.85;;
14933;SDS011;7560;51.364;12.384;2023-02-02T08:04:11;9.05;;;1.30;;
14933;SDS011;7560;51.364;12.384;2023-02-02T08:09:13;9.52;;;1.50;;
14933;SDS011;7560;51.364;12.384;2023-02-02T08:14:15;7.60;;;1.52;;
14933;SDS011;7560;51.364;12.384;2023-02-02T08:19:17;12.65;;;1.52;;
14933;SDS011;7560;51.364;12.384;2023-02-02T08:24:20;6.97;;;1.40;;
14933;SDS011;7560;51.364;12.384;2023-02-02T08:29:22;6.95;;;1.50;;
14933;SDS011;7560;51.364;12.384;2023-02-02T08:34:24;8.15;;;1.83;;
14933;SDS011;7560;51.364;12.384;2023-02-02T08:39:26;6.78;;;1.67;;
14933;SDS011;7560;51.364;12.384;2023-02-02T08:44:28;7.55;;;1.65;;
14933;SDS011;7560;51.364;12.384;2023-02-02T08:49:50;5.28;;;1.40;;
14933;SDS011;7560;51.364;12.384;2023-02-02T08:54:51;8.35;;;1.70;;
14933;SDS011;7560;51.364;12.384;2023-02-02T08:59:53;8.35;;;1.45;;
14933;SDS011;7560;51.364;12.384;2023-02-02T09:04:55;7.68;;;1.80;;
14933;SDS011;7560;51.364;12.384;2023-02-02T09:09:57;10.70;;;2.05;;
14933;SDS011;7560;51.364;12.384;2023-02-02T09:14:59;15.32;;;1.90;;
14933;SDS011;7560;51.364;12.384;2023-02-02T09:20:01;8.70;;;1.75;;
14933;SDS011;7560;51.364;12.384;2023-02-02T09:25:03;12.68;;;1.85;;
14933;SDS011;7560;51.364;12.384;2023-02-02T09:30:05;12.40;;;1.77;;
14933;SDS011;7560;51.364;12.384;2023-02-02T09:35:08;10.77;;;2.25;;
14933;SDS011;7560;51.364;12.384;2023-02-02T09:40:13;10.27;;;2.13;;
14933;SDS011;7560;51.364;12.384;2023-02-02T09:50:38;8.65;;;2.35;;
14933;SDS011;7560;51.364;12.384;2023-02-02T09:56:07;16.73;;;2.40;;
14933;SDS011;7560;51.364;12.384;2023-02-02T10:01:32;9.25;;;1.80;;
14933;SDS011;7560;51.364;12.384;2023-02-02T10:06:43;7.75;;;1.90;;
14933;SDS011;7560;51.364;12.384;2023-02-02T10:17:22;8.40;;;2.42;;
14933;SDS011;7560;51.364;12.384;2023-02-02T10:22:53;14.05;;;2.30;;
14933;SDS011;7560;51.364;12.384;2023-02-02T10:28:03;10.38;;;2.13;;
14933;SDS011;7560;51.364;12.384;2023-02-02T10:33:20;10.95;;;2.00;;
14933;SDS011;7560;51.364;12.384;2023-02-02T10:38:50;6.65;;;1.55;;
14933;SDS011;7560;51.364;12.384;2023-02-02T10:44:12;9.93;;;2.25;;
14933;SDS011;7560;51.364;12.384;2023-02-02T10:49:30;12.05;;;2.45;;
14933;SDS011;7560;51.364;12.384;2023-02-02T11:00:19;14.63;;;3.35;;
14933;SDS011;7560;51.364;12.384;2023-02-02T11:05:40;20.70;;;5.10;;
14933;SDS011;7560;51.364;12.384;2023-02-02T11:11:11;12.73;;;2.60;;
14933;SDS011;7560;51.364;12.384;2023-02-02T11:16:22;10.80;;;2.88;;
14933;SDS011;7560;51.364;12.384;2023-02-02T11:21:39;13.93;;;3.38;;
14933;SDS011;7560;51.364;12.384;2023-02-02T11:26:42;10.82;;;2.55;;
14933;SDS011;7560;51.364;12.384;2023-02-02T11:31:48;9.13;;;2.20;;
14933;SDS011;7560;51.364;12.384;2023-02-02T11:42:00;10.98;;;1.80;;
14933;SDS011;7560;51.364;12.384;2023-02-02T11:47:29;13.52;;;2.47;;
14933;SDS011;7560;51.364;12.384;2023-02-02T11:52:33;11.35;;;1.77;;
14933;SDS011;7560;51.364;12.384;2023-02-02T11:57:37;8.77;;;1.70;;
14933;SDS011;7560;51.364;12.384;2023-02-02T12:02:44;8.68;;;1.92;;
14933;SDS011;7560;51.364;12.384;2023-02-02T12:07:49;9.25;;;1.92;;
14933;SDS011;7560;51.364;12.384;2023-02-02T12:12:55;8.15;;;1.70;;
14933;SDS011;7560;51.364;12.384;2023-02-02T12:18:13;10.77;;;1.88;;
14933;SDS011;7560;51.364;12.384;2023-02-02T12:23:38;10.07;;;1.85;;
14933;SDS011;7560;51.364;12.384;2023-02-02T12:29:05;8.25;;;1.77;;
14933;SDS011;7560;51.364;12.384;2023-02-02T12:34:31;7.80;;;1.90;;
14933;SDS011;7560;51.364;12.384;2023-02-02T12:55:47;5.95;;;1.67;;
14933;SDS011;7560;51.364;12.384;2023-02-02T13:11:15;5.53;;;1.35;;
14933;SDS011;7560;51.364;12.384;2023-02-02T13:16:40;7.03;;;1.52;;
14933;SDS011;7560;51.364;12.384;2023-02-02T13:21:48;7.10;;;1.15;;
14933;SDS011;7560;51.364;12.384;2023-02-02T13:26:53;6.35;;;1.30;;
14933;SDS011;7560;51.364;12.384;2023-02-02T13:32:00;5.65;;;1.23;;
14933;SDS011;7560;51.364;12.384;2023-02-02T13:42:36;6.40;;;1.48;;
14933;SDS011;7560;51.364;12.384;2023-02-02T13:47:48;9.05;;;1.60;;
14933;SDS011;7560;51.364;12.384;2023-02-02T13:53:03;5.72;;;1.48;;
14933;SDS011;7560;51.364;12.384;2023-02-02T14:03:40;7.13;;;1.67;;
14933;SDS011;7560;51.364;12.384;2023-02-02T14:14:12;5.53;;;1.75;;
14933;SDS011;7560;51.364;12.384;2023-02-02T14:29:36;7.50;;;1.80;;
14933;SDS011;7560;51.364;12.384;2023-02-02T14:45:23;5.25;;;1.70;;
14933;SDS011;7560;51.364;12.384;2023-02-02T14:50:55;6.47;;;1.80;;
14933;SDS011;7560;51.364;12.384;2023-02-02T14:56:01;8.27;;;1.98;;
14933;SDS011;7560;51.364;12.384;2023-02-02T15:06:39;7.75;;;2.42;;
14933;SDS011;7560;51.364;12.384;2023-02-02T15:22:44;9.55;;;2.05;;
14933;SDS011;7560;51.364;12.384;2023-02-02T15:27:59;5.25;;;1.98;;
14933;SDS011;7560;51.364;12.384;2023-02-02T15:33:30;7.35;;;2.08;;
14933;SDS011;7560;51.364;12.384;2023-02-02T15:38:38;7.47;;;2.15;;
14933;SDS011;7560;51.364;12.384;2023-02-02T15:43:42;3.95;;;1.90;;
14933;SDS011;7560;51.364;12.384;2023-02-02T15:48:44;6.28;;;2.10;;
14933;SDS011;7560;51.364;12.384;2023-02-02T15:53:48;7.60;;;2.22;;
14933;SDS011;7560;51.364;12.384;2023-02-02T15:58:53;5.45;;;2.20;;
14933;SDS011;7560;51.364;12.384;2023-02-02T16:04:00;3.28;;;1.60;;
14933;SDS011;7560;51.364;12.384;2023-02-02T16:09:46;5.38;;;1.88;;
14933;SDS011;7560;51.364;12.384;2023-02-02T16:14:44;4.15;;;1.80;;
14933;SDS011;7560;51.364;12.384;2023-02-02T16:19:48;5.03;;;2.10;;
14933;SDS011;7560;51.364;12.384;2023-02-02T16:24:53;8.95;;;2.97;;
14933;SDS011;7560;51.364;12.384;2023-02-02T16:30:05;8.18;;;2.30;;
14933;SDS011;7560;51.364;12.384;2023-02-02T16:40:36;8.13;;;2.22;;
14933;SDS011;7560;51.364;12.384;2023-02-02T16:45:42;6.00;;;2.10;;
14933;SDS011;7560;51.364;12.384;2023-02-02T16:51:00;7.15;;;1.98;;
14933;SDS011;7560;51.364;12.384;2023-02-02T16:56:05;7.68;;;1.92;;
14933;SDS011;7560;51.364;12.384;2023-02-02T17:01:09;6.75;;;2.40;;
14933;SDS011;7560;51.364;12.384;2023-02-02T17:06:16;5.90;;;2.47;;
14933;SDS011;7560;51.364;12.384;2023-02-02T17:11:26;5.35;;;2.42;;
14933;SDS011;7560;51.364;12.384;2023-02-02T17:16:31;7.90;;;2.75;;
14933;SDS011;7560;51.364;12.384;2023-02-02T17:21:33;6.05;;;3.00;;
14933;SDS011;7560;51.364;12.384;2023-02-02T17:26:38;10.25;;;3.10;;
14933;SDS011;7560;51.364;12.384;2023-02-02T17:31:40;7.00;;;3.08;;
14933;SDS011;7560;51.364;12.384;2023-02-02T17:36:42;6.78;;;2.60;;
14933;SDS011;7560;51.364;12.384;2023-02-02T17:41:44;7.60;;;2.83;;
14933;SDS011;7560;51.364;12.384;2023-02-02T17:46:48;7.43;;;2.63;;
14933;SDS011;7560;51.364;12.384;2023-02-02T17:51:50;6.22;;;2.50;;
14933;SDS011;7560;51.364;12.384;2023-02-02T17:56:52;5.85;;;2.65;;
14933;SDS011;7560;51.364;12.384;2023-02-02T18:01:55;7.53;;;3.13;;
14933;SDS011;7560;51.364;12.384;2023-02-02T18:06:57;4.70;;;2.70;;
14933;SDS011;7560;51.364;12.384;2023-02-02T18:11:59;8.55;;;2.55;;
14933;SDS011;7560;51.364;12.384;2023-02-02T18:17:01;7.43;;;2.25;;
14933;SDS011;7560;51.364;12.384;2023-02-02T18:22:03;6.30;;;2.38;;
14933;SDS011;7560;51.364;12.384;2023-02-02T18:27:06;6.03;;;2.47;;
14933;SDS011;7560;51.364;12.384;2023-02-02T18:32:09;3.67;;;2.10;;
14933;SDS011;7560;51.364;12.384;2023-02-02T18:37:11;4.43;;;2.17;;
14933;SDS011;7560;51.364;12.384;2023-02-02T18:42:13;5.63;;;2.40;;
14933;SDS011;7560;51.364;12.384;2023-02-02T18:47:15;6.13;;;2.08;;
14933;SDS011;7560;51.364;12.384;2023-02-02T18:52:17;6.82;;;2.35;;
14933;SDS011;7560;51.364;12.384;2023-02-02T18:57:20;5.30;;;2.90;;
14933;SDS011;7560;51.364;12.384;2023-02-02T19:02:22;6.43;;;3.20;;
14933;SDS011;7560;51.364;12.384;2023-02-02T19:07:25;12.95;;;3.95;;
14933;SDS011;7560;51.364;12.384;2023-02-02T19:12:47;9.13;;;4.70;;
14933;SDS011;7560;51.364;12.384;2023-02-02T19:18:15;5.65;;;3.50;;
14933;SDS011;7560;51.364;12.384;2023-02-02T19:23:22;6.78;;;3.35;;
14933;SDS011;7560;51.364;12.384;2023-02-02T19:28:29;6.68;;;3.88;;
14933;SDS011;7560;51.364;12.384;2023-02-02T19:33:39;6.78;;;3.22;;
14933;SDS011;7560;51.364;12.384;2023-02-02T19:38:44;12.45;;;4.00;;
14933;SDS011;7560;51.364;12.384;2023-02-02T19:43:47;4.35;;;2.80;;
14933;SDS011;7560;51.364;12.384;2023-02-02T19:49:02;5.28;;;2.83;;
14933;SDS011;7560;51.364;12.384;2023-02-02T19:54:28;4.93;;;2.80;;
14933;SDS011;7560;51.364;12.384;2023-02-02T19:59:36;6.13;;;2.80;;
14933;SDS011;7560;51.364;12.384;2023-02-02T20:04:39;6.03;;;2.45;;
14933;SDS011;7560;51.364;12.384;2023-02-02T20:09:41;6.90;;;3.15;;
14933;SDS011;7560;51.364;12.384;2023-02-02T20:14:44;4.45;;;2.80;;
14933;SDS011;7560;51.364;12.384;2023-02-02T20:19:48;4.88;;;2.63;;
14933;SDS011;7560;51.364;12.384;2023-02-02T20:24:50;5.10;;;2.38;;
14933;SDS011;7560;51.364;12.384;2023-02-02T20:29:56;4.07;;;2.10;;
14933;SDS011;7560;51.364;12.384;2023-02-02T20:35:01;6.07;;;2.25;;
14933;SDS011;7560;51.364;12.384;2023-02-02T20:40:24;4.43;;;1.85;;
14933;SDS011;7560;51.364;12.384;2023-02-02T20:45:28;4.22;;;1.90;;
14933;SDS011;7560;51.364;12.384;2023-02-02T20:50:30;6.95;;;2.20;;
14933;SDS011;7560;51.364;12.384;2023-02-02T20:55:32;4.53;;;1.98;;
14933;SDS011;7560;51.364;12.384;2023-02-02T21:00:36;4.57;;;2.10;;
14933;SDS011;7560;51.364;12.384;2023-02-02T21:05:39;4.00;;;2.25;;
14933;SDS011;7560;51.364;12.384;2023-02-02T21:10:41;4.65;;;2.50;;
14933;SDS011;7560;51.364;12.384;2023-02-02T21:15:42;5.43;;;2.80;;
14933;SDS011;7560;51.364;12.384;2023-02-02T21:20:44;3.63;;;2.58;;
14933;SDS011;7560;51.364;12.384;2023-02-02T21:25:46;5.00;;;2.67;;
14933;SDS011;7560;51.364;12.384;2023-02-02T21:30:48;5.40;;;3.30;;
14933;SDS011;7560;51.364;12.384;2023-02-02T21:35:50;4.13;;;3.05;;
14933;SDS011;7560;51.364;12.384;2023-02-02T21:40:53;5.40;;;2.85;;
14933;SDS011;7560;51.364;12.384;2023-02-02T21:45:57;5.60;;;3.03;;
14933;SDS011;7560;51.364;12.384;2023-02-02T21:56:39;4.93;;;3.22;;
14933;SDS011;7560;51.364;12.384;2023-02-02T22:01:42;4.93;;;2.85;;
14933;SDS011;7560;51.364;12.384;2023-02-02T22:06:46;5.82;;;2.63;;
14933;SDS011;7560;51.364;12.384;2023-02-02T22:16:52;4.32;;;2.38;;
14933;SDS011;7560;51.364;12.384;2023-02-02T22:27:24;4.75;;;2.58;;
14933;SDS011;7560;51.364;12.384;2023-02-02T22:32:40;4.88;;;2.50;;
14933;SDS011;7560;51.364;12.384;2023-02-02T22:37:42;4.20;;;1.95;;
14933;SDS011;7560;51.364;12.384;2023-02-02T22:42:44;4.45;;;2.40;;
14933;SDS011;7560;51.364;12.384;2023-02-02T22:47:46;4.82;;;2.30;;
14933;SDS011;7560;51.364;12.384;2023-02-02T22:52:48;3.70;;;1.90;;
14933;SDS011;7560;51.364;12.384;2023-02-02T22:57:50;6.40;;;2.10;;
14933;SDS011;7560;51.364;12.384;2023-02-02T23:02:53;3.22;;;1.45;;
14933;SDS011;7560;51.364;12.384;2023-02-02T23:07:55;3.15;;;1.70;;
14933;SDS011;7560;51.364;12.384;2023-02-02T23:12:57;5.25;;;1.70;;
14933;SDS011;7560;51.364;12.384;2023-02-02T23:17:59;3.15;;;1.70;;
14933;SDS011;7560;51.364;12.384;2023-02-02T23:23:01;2.45;;;1.40;;
14933;SDS011;7560;51.364;12.384;2023-02-02T23:28:04;3.42;;;1.50;;
14933;SDS011;7560;51.364;12.384;2023-02-02T23:33:09;5.50;;;1.50;;
14933;SDS011;7560;51.364;12.384;2023-02-02T23:38:11;1.52;;;1.23;;
14933;SDS011;7560;51.364;12.384;2023-02-02T23:43:14;4.82;;;1.10;;
14933;SDS011;7560;51.364;12.384;2023-02-02T23:48:15;3.30;;;1.25;;
14933;SDS011;7560;51.364;12.384;2023-02-02T23:53:18;2.55;;;1.20;;
14933;SDS011;7560;51.364;12.384;2023-02-02T23:58:20;3.03;;;1.13;;
